sensor_id;sensor_type;location;lat;lon;timestamp;pressure;altitude;pressure_sealevel;temperature
62845;BMP280;48929;47.910;20.390;2023-02-13T00:01:36;101443.66;;;-3.65
62845;BMP280;48929;47.910;20.390;2023-02-13T00:04:04;101430.25;;;-3.66
62845;BMP280;48929;47.910;20.390;2023-02-13T00:06:33;101429.47;;;-3.66
62845;BMP280;48929;47.910;20.390;2023-02-13T00:09:03;101425.47;;;-3.69
62845;BMP280;48929;47.910;20.390;2023-02-13T00:11:33;101423.31;;;-3.73
62845;BMP280;48929;47.910;20.390;2023-02-13T00:14:01;101430.97;;;-3.75
62845;BMP280;48929;47.910;20.390;2023-02-13T00:16:30;101432.13;;;-3.79
62845;BMP280;48929;47.910;20.390;2023-02-13T00:18:59;101428.00;;;-3.80
62845;BMP280;48929;47.910;20.390;2023-02-13T00:21:28;101437.28;;;-3.80
62845;BMP280;48929;47.910;20.390;2023-02-13T00:23:56;101439.13;;;-3.82
62845;BMP280;48929;47.910;20.390;2023-02-13T00:26:27;101436.03;;;-3.86
62845;BMP280;48929;47.910;20.390;2023-02-13T00:28:56;101440.97;;;-3.84
62845;BMP280;48929;47.910;20.390;2023-02-13T00:31:26;101450.22;;;-3.85
62845;BMP280;48929;47.910;20.390;2023-02-13T00:33:55;101452.19;;;-3.88
62845;BMP280;48929;47.910;20.390;2023-02-13T00:36:24;101443.31;;;-3.92
62845;BMP280;48929;47.910;20.390;2023-02-13T00:38:53;101459.53;;;-3.97
62845;BMP280;48929;47.910;20.390;2023-02-13T00:41:22;101453.03;;;-3.99
62845;BMP280;48929;47.910;20.390;2023-02-13T00:43:52;101452.91;;;-3.98
62845;BMP280;48929;47.910;20.390;2023-02-13T00:46:21;101457.03;;;-3.97
62845;BMP280;48929;47.910;20.390;2023-02-13T00:48:50;101465.38;;;-3.96
62845;BMP280;48929;47.910;20.390;2023-02-13T00:51:18;101467.22;;;-3.98
62845;BMP280;48929;47.910;20.390;2023-02-13T00:53:47;101471.81;;;-4.03
62845;BMP280;48929;47.910;20.390;2023-02-13T00:56:16;101460.03;;;-4.03
62845;BMP280;48929;47.910;20.390;2023-02-13T00:58:45;101461.06;;;-4.05
62845;BMP280;48929;47.910;20.390;2023-02-13T01:01:15;101457.28;;;-4.11
62845;BMP280;48929;47.910;20.390;2023-02-13T01:03:45;101447.47;;;-4.14
62845;BMP280;48929;47.910;20.390;2023-02-13T01:06:14;101446.44;;;-4.11
62845;BMP280;48929;47.910;20.390;2023-02-13T01:08:43;101442.44;;;-4.14
62845;BMP280;48929;47.910;20.390;2023-02-13T01:11:12;101433.50;;;-4.18
62845;BMP280;48929;47.910;20.390;2023-02-13T01:13:41;101433.19;;;-4.24
62845;BMP280;48929;47.910;20.390;2023-02-13T01:16:10;101442.00;;;-4.30
62845;BMP280;48929;47.910;20.390;2023-02-13T01:18:46;101443.03;;;-4.33
62845;BMP280;48929;47.910;20.390;2023-02-13T01:21:16;101436.97;;;-4.30
62845;BMP280;48929;47.910;20.390;2023-02-13T01:23:46;101443.84;;;-4.32
62845;BMP280;48929;47.910;20.390;2023-02-13T01:26:18;101445.91;;;-4.37
62845;BMP280;48929;47.910;20.390;2023-02-13T01:28:51;101441.34;;;-4.43
62845;BMP280;48929;47.910;20.390;2023-02-13T01:31:20;101439.16;;;-4.48
62845;BMP280;48929;47.910;20.390;2023-02-13T01:33:51;101442.03;;;-4.52
62845;BMP280;48929;47.910;20.390;2023-02-13T01:36:20;101440.31;;;-4.52
62845;BMP280;48929;47.910;20.390;2023-02-13T01:38:52;101446.50;;;-4.56
62845;BMP280;48929;47.910;20.390;2023-02-13T01:41:21;101446.50;;;-4.56
62845;BMP280;48929;47.910;20.390;2023-02-13T01:43:52;101446.25;;;-4.53
62845;BMP280;48929;47.910;20.390;2023-02-13T01:46:25;101441.47;;;-4.56
62845;BMP280;48929;47.910;20.390;2023-02-13T01:49:00;101446.59;;;-4.57
62845;BMP280;48929;47.910;20.390;2023-02-13T01:51:32;101452.75;;;-4.62
62845;BMP280;48929;47.910;20.390;2023-02-13T01:54:05;101451.66;;;-4.69
62845;BMP280;48929;47.910;20.390;2023-02-13T01:56:37;101444.34;;;-4.72
62845;BMP280;48929;47.910;20.390;2023-02-13T01:59:09;101454.28;;;-4.70
62845;BMP280;48929;47.910;20.390;2023-02-13T02:01:38;101447.75;;;-4.73
62845;BMP280;48929;47.910;20.390;2023-02-13T02:04:12;101443.66;;;-4.74
62845;BMP280;48929;47.910;20.390;2023-02-13T02:06:43;101448.88;;;-4.77
62845;BMP280;48929;47.910;20.390;2023-02-13T02:09:17;101438.25;;;-4.80
62845;BMP280;48929;47.910;20.390;2023-02-13T02:11:51;101442.59;;;-4.82
62845;BMP280;48929;47.910;20.390;2023-02-13T02:14:21;101435.38;;;-4.87
62845;BMP280;48929;47.910;20.390;2023-02-13T02:16:50;101440.41;;;-4.87
62845;BMP280;48929;47.910;20.390;2023-02-13T02:19:29;101438.94;;;-4.89
62845;BMP280;48929;47.910;20.390;2023-02-13T02:22:24;101439.16;;;-4.93
62845;BMP280;48929;47.910;20.390;2023-02-13T02:25:18;101436.88;;;-4.96
62845;BMP280;48929;47.910;20.390;2023-02-13T02:28:13;101425.22;;;-4.97
62845;BMP280;48929;47.910;20.390;2023-02-13T02:34:09;101428.63;;;-4.98
62845;BMP280;48929;47.910;20.390;2023-02-13T02:36:52;101423.84;;;-5.01
62845;BMP280;48929;47.910;20.390;2023-02-13T02:39:29;101423.84;;;-5.01
62845;BMP280;48929;47.910;20.390;2023-02-13T02:42:11;101429.66;;;-5.00
62845;BMP280;48929;47.910;20.390;2023-02-13T02:44:44;101434.13;;;-5.04
62845;BMP280;48929;47.910;20.390;2023-02-13T02:47:22;101439.38;;;-5.07
62845;BMP280;48929;47.910;20.390;2023-02-13T02:50:28;101445.50;;;-5.11
62845;BMP280;48929;47.910;20.390;2023-02-13T02:53:16;101436.47;;;-5.13
62845;BMP280;48929;47.910;20.390;2023-02-13T02:55:50;101440.81;;;-5.15
62845;BMP280;48929;47.910;20.390;2023-02-13T02:58:23;101439.00;;;-5.13
62845;BMP280;48929;47.910;20.390;2023-02-13T03:01:13;101442.19;;;-5.11
62845;BMP280;48929;47.910;20.390;2023-02-13T03:04:00;101444.13;;;-5.15
62845;BMP280;48929;47.910;20.390;2023-02-13T03:06:51;101444.47;;;-5.19
62845;BMP280;48929;47.910;20.390;2023-02-13T03:09:24;101443.13;;;-5.23
62845;BMP280;48929;47.910;20.390;2023-02-13T03:12:16;101441.53;;;-5.24
62845;BMP280;48929;47.910;20.390;2023-02-13T03:15:04;101444.94;;;-5.26
62845;BMP280;48929;47.910;20.390;2023-02-13T03:17:32;101440.72;;;-5.25
62845;BMP280;48929;47.910;20.390;2023-02-13T03:20:22;101443.34;;;-5.27
62845;BMP280;48929;47.910;20.390;2023-02-13T03:23:14;101442.50;;;-5.27
62845;BMP280;48929;47.910;20.390;2023-02-13T03:25:58;101444.03;;;-5.24
62845;BMP280;48929;47.910;20.390;2023-02-13T03:28:35;101444.72;;;-5.22
62845;BMP280;48929;47.910;20.390;2023-02-13T03:31:30;101438.41;;;-5.28
62845;BMP280;48929;47.910;20.390;2023-02-13T03:34:04;101434.50;;;-5.32
62845;BMP280;48929;47.910;20.390;2023-02-13T03:36:42;101430.38;;;-5.33
62845;BMP280;48929;47.910;20.390;2023-02-13T03:39:37;101428.69;;;-5.33
62845;BMP280;48929;47.910;20.390;2023-02-13T03:42:15;101436.22;;;-5.33
62845;BMP280;48929;47.910;20.390;2023-02-13T03:44:48;101427.28;;;-5.37
62845;BMP280;48929;47.910;20.390;2023-02-13T03:47:40;101430.84;;;-5.39
62845;BMP280;48929;47.910;20.390;2023-02-13T03:50:11;101421.69;;;-5.40
62845;BMP280;48929;47.910;20.390;2023-02-13T03:52:46;101424.91;;;-5.38
62845;BMP280;48929;47.910;20.390;2023-02-13T03:55:19;101419.06;;;-5.39
62845;BMP280;48929;47.910;20.390;2023-02-13T03:58:09;101417.78;;;-5.44
62845;BMP280;48929;47.910;20.390;2023-02-13T04:01:00;101408.09;;;-5.49
62845;BMP280;48929;47.910;20.390;2023-02-13T04:03:36;101411.50;;;-5.50
62845;BMP280;48929;47.910;20.390;2023-02-13T04:06:10;101406.47;;;-5.50
62845;BMP280;48929;47.910;20.390;2023-02-13T04:08:41;101406.59;;;-5.51
62845;BMP280;48929;47.910;20.390;2023-02-13T04:11:13;101411.72;;;-5.53
62845;BMP280;48929;47.910;20.390;2023-02-13T04:13:46;101411.16;;;-5.57
62845;BMP280;48929;47.910;20.390;2023-02-13T04:16:20;101399.59;;;-5.59
62845;BMP280;48929;47.910;20.390;2023-02-13T04:18:51;101408.13;;;-5.62
62845;BMP280;48929;47.910;20.390;2023-02-13T04:21:20;101397.50;;;-5.65
62845;BMP280;48929;47.910;20.390;2023-02-13T04:23:49;101395.22;;;-5.68
62845;BMP280;48929;47.910;20.390;2023-02-13T04:26:22;101400.34;;;-5.70
62845;BMP280;48929;47.910;20.390;2023-02-13T04:28:51;101388.94;;;-5.74
62845;BMP280;48929;47.910;20.390;2023-02-13T04:31:20;101397.47;;;-5.76
62845;BMP280;48929;47.910;20.390;2023-02-13T04:33:49;101395.19;;;-5.79
62845;BMP280;48929;47.910;20.390;2023-02-13T04:36:18;101400.41;;;-5.82
62845;BMP280;48929;47.910;20.390;2023-02-13T04:38:47;101379.63;;;-5.84
62845;BMP280;48929;47.910;20.390;2023-02-13T04:41:15;101379.75;;;-5.86
62845;BMP280;48929;47.910;20.390;2023-02-13T04:43:46;101384.88;;;-5.88
62845;BMP280;48929;47.910;20.390;2023-02-13T04:46:15;101377.66;;;-5.92
62845;BMP280;48929;47.910;20.390;2023-02-13T04:48:43;101375.34;;;-5.95
62845;BMP280;48929;47.910;20.390;2023-02-13T04:51:12;101373.19;;;-6.00
62845;BMP280;48929;47.910;20.390;2023-02-13T04:53:41;101383.25;;;-6.00
62845;BMP280;48929;47.910;20.390;2023-02-13T04:56:10;101371.72;;;-6.02
62845;BMP280;48929;47.910;20.390;2023-02-13T04:58:39;101357.75;;;-6.06
62845;BMP280;48929;47.910;20.390;2023-02-13T05:01:14;101363.56;;;-6.06
62845;BMP280;48929;47.910;20.390;2023-02-13T05:03:43;101366.06;;;-6.06
62845;BMP280;48929;47.910;20.390;2023-02-13T05:06:12;101366.19;;;-6.07
62845;BMP280;48929;47.910;20.390;2023-02-13T05:08:41;101363.47;;;-6.04
62845;BMP280;48929;47.910;20.390;2023-02-13T05:11:10;101368.28;;;-6.01
62845;BMP280;48929;47.910;20.390;2023-02-13T05:13:39;101374.28;;;-6.04
62845;BMP280;48929;47.910;20.390;2023-02-13T05:16:08;101371.91;;;-6.05
62845;BMP280;48929;47.910;20.390;2023-02-13T05:18:42;101366.19;;;-6.07
62845;BMP280;48929;47.910;20.390;2023-02-13T05:21:11;101362.38;;;-6.13
62845;BMP280;48929;47.910;20.390;2023-02-13T05:23:56;101365.91;;;-6.15
62845;BMP280;48929;47.910;20.390;2023-02-13T05:26:25;101374.34;;;-6.16
62845;BMP280;48929;47.910;20.390;2023-02-13T05:28:53;101377.75;;;-6.18
62845;BMP280;48929;47.910;20.390;2023-02-13T05:31:39;101377.84;;;-6.19
62845;BMP280;48929;47.910;20.390;2023-02-13T05:34:11;101385.47;;;-6.21
62845;BMP280;48929;47.910;20.390;2023-02-13T05:36:40;101377.25;;;-6.23
62845;BMP280;48929;47.910;20.390;2023-02-13T05:39:09;101380.81;;;-6.25
62845;BMP280;48929;47.910;20.390;2023-02-13T05:41:38;101385.13;;;-6.27
62845;BMP280;48929;47.910;20.390;2023-02-13T05:44:07;101393.56;;;-6.28
62845;BMP280;48929;47.910;20.390;2023-02-13T05:46:36;101401.09;;;-6.28
62845;BMP280;48929;47.910;20.390;2023-02-13T05:49:06;101407.81;;;-6.29
62845;BMP280;48929;47.910;20.390;2023-02-13T05:51:36;101408.00;;;-6.32
62845;BMP280;48929;47.910;20.390;2023-02-13T05:54:05;101412.94;;;-6.30
62845;BMP280;48929;47.910;20.390;2023-02-13T05:56:34;101408.91;;;-6.33
62845;BMP280;48929;47.910;20.390;2023-02-13T05:59:03;101417.97;;;-6.30
62845;BMP280;48929;47.910;20.390;2023-02-13T06:01:33;101414.44;;;-6.28
62845;BMP280;48929;47.910;20.390;2023-02-13T06:04:02;101419.25;;;-6.25
62845;BMP280;48929;47.910;20.390;2023-02-13T06:06:31;101419.34;;;-6.26
62845;BMP280;48929;47.910;20.390;2023-02-13T06:09:02;101432.69;;;-6.26
62845;BMP280;48929;47.910;20.390;2023-02-13T06:11:31;101435.88;;;-6.24
62845;BMP280;48929;47.910;20.390;2023-02-13T06:14:00;101435.66;;;-6.21
62845;BMP280;48929;47.910;20.390;2023-02-13T06:16:29;101436.38;;;-6.19
62845;BMP280;48929;47.910;20.390;2023-02-13T06:18:58;101439.50;;;-6.15
62845;BMP280;48929;47.910;20.390;2023-02-13T06:21:27;101446.81;;;-6.12
62845;BMP280;48929;47.910;20.390;2023-02-13T06:23:56;101446.59;;;-6.09
62845;BMP280;48929;47.910;20.390;2023-02-13T06:26:26;101448.91;;;-6.06
62845;BMP280;48929;47.910;20.390;2023-02-13T06:28:56;101455.34;;;-6.02
62845;BMP280;48929;47.910;20.390;2023-02-13T06:31:25;101455.94;;;-5.98
62845;BMP280;48929;47.910;20.390;2023-02-13T06:33:57;101459.09;;;-5.96
62845;BMP280;48929;47.910;20.390;2023-02-13T06:36:26;101460.28;;;-5.89
62845;BMP280;48929;47.910;20.390;2023-02-13T06:38:55;101466.59;;;-5.83
62845;BMP280;48929;47.910;20.390;2023-02-13T06:41:25;101463.88;;;-5.80
62845;BMP280;48929;47.910;20.390;2023-02-13T06:43:54;101471.00;;;-5.74
62845;BMP280;48929;47.910;20.390;2023-02-13T06:46:23;101468.84;;;-5.68
62845;BMP280;48929;47.910;20.390;2023-02-13T06:48:53;101464.19;;;-5.61
62845;BMP280;48929;47.910;20.390;2023-02-13T06:51:21;101466.28;;;-5.55
62845;BMP280;48929;47.910;20.390;2023-02-13T06:53:50;101464.03;;;-5.47
62845;BMP280;48929;47.910;20.390;2023-02-13T06:56:19;101458.56;;;-5.41
62845;BMP280;48929;47.910;20.390;2023-02-13T06:58:50;101458.03;;;-5.33
62845;BMP280;48929;47.910;20.390;2023-02-13T07:01:18;101463.44;;;-5.27
62845;BMP280;48929;47.910;20.390;2023-02-13T07:03:47;101473.72;;;-5.18
62845;BMP280;48929;47.910;20.390;2023-02-13T07:06:17;101467.22;;;-5.10
62845;BMP280;48929;47.910;20.390;2023-02-13T07:08:46;101467.50;;;-5.02
62845;BMP280;48929;47.910;20.390;2023-02-13T07:11:17;101467.63;;;-4.92
62845;BMP280;48929;47.910;20.390;2023-02-13T07:13:46;101458.47;;;-4.82
62845;BMP280;48929;47.910;20.390;2023-02-13T07:16:17;101461.94;;;-4.72
62845;BMP280;48929;47.910;20.390;2023-02-13T07:18:46;101472.53;;;-4.57
62845;BMP280;48929;47.910;20.390;2023-02-13T07:21:15;101471.09;;;-4.48
62845;BMP280;48929;47.910;20.390;2023-02-13T07:23:44;101468.88;;;-4.42
62845;BMP280;48929;47.910;20.390;2023-02-13T07:26:12;101470.84;;;-4.34
62845;BMP280;48929;47.910;20.390;2023-02-13T07:28:42;101471.06;;;-4.26
62845;BMP280;48929;47.910;20.390;2023-02-13T07:31:11;101465.88;;;-4.13
62845;BMP280;48929;47.910;20.390;2023-02-13T07:33:42;101472.63;;;-4.03
62845;BMP280;48929;47.910;20.390;2023-02-13T07:36:11;101462.66;;;-3.93
62845;BMP280;48929;47.910;20.390;2023-02-13T07:38:39;101465.34;;;-3.85
62845;BMP280;48929;47.910;20.390;2023-02-13T07:41:08;101463.63;;;-3.73
62845;BMP280;48929;47.910;20.390;2023-02-13T07:43:37;101468.34;;;-3.59
62845;BMP280;48929;47.910;20.390;2023-02-13T07:46:06;101477.47;;;-3.47
62845;BMP280;48929;47.910;20.390;2023-02-13T07:48:35;101477.41;;;-3.36
62845;BMP280;48929;47.910;20.390;2023-02-13T07:51:06;101470.03;;;-3.27
62845;BMP280;48929;47.910;20.390;2023-02-13T07:53:35;101472.50;;;-3.16
62845;BMP280;48929;47.910;20.390;2023-02-13T07:56:04;101479.28;;;-3.07
62845;BMP280;48929;47.910;20.390;2023-02-13T07:58:34;101471.78;;;-2.97
62845;BMP280;48929;47.910;20.390;2023-02-13T08:01:07;101469.72;;;-2.83
62845;BMP280;48929;47.910;20.390;2023-02-13T08:03:36;101462.63;;;-2.68
62845;BMP280;48929;47.910;20.390;2023-02-13T08:06:07;101467.84;;;-2.50
62845;BMP280;48929;47.910;20.390;2023-02-13T08:08:36;101469.91;;;-2.35
62845;BMP280;48929;47.910;20.390;2023-02-13T08:11:10;101465.41;;;-2.21
62845;BMP280;48929;47.910;20.390;2023-02-13T08:13:57;101459.16;;;-2.08
62845;BMP280;48929;47.910;20.390;2023-02-13T08:16:26;101464.34;;;-1.99
62845;BMP280;48929;47.910;20.390;2023-02-13T08:18:54;101469.28;;;-1.88
62845;BMP280;48929;47.910;20.390;2023-02-13T08:21:25;101461.31;;;-1.74
62845;BMP280;48929;47.910;20.390;2023-02-13T08:23:53;101464.22;;;-1.59
62845;BMP280;48929;47.910;20.390;2023-02-13T08:26:23;101458.59;;;-1.44
62845;BMP280;48929;47.910;20.390;2023-02-13T08:28:52;101464.28;;;-1.22
62845;BMP280;48929;47.910;20.390;2023-02-13T08:31:22;101462.78;;;-1.06
62845;BMP280;48929;47.910;20.390;2023-02-13T08:33:51;101471.06;;;-0.86
62845;BMP280;48929;47.910;20.390;2023-02-13T08:36:20;101466.03;;;-0.68
62845;BMP280;48929;47.910;20.390;2023-02-13T08:38:50;101468.59;;;-0.50
62845;BMP280;48929;47.910;20.390;2023-02-13T08:41:22;101468.63;;;-0.32
62845;BMP280;48929;47.910;20.390;2023-02-13T08:43:52;101472.00;;;-0.14
62845;BMP280;48929;47.910;20.390;2023-02-13T08:46:21;101455.03;;;0.04
62845;BMP280;48929;47.910;20.390;2023-02-13T08:48:50;101462.94;;;0.19
62845;BMP280;48929;47.910;20.390;2023-02-13T08:51:19;101464.41;;;0.29
62845;BMP280;48929;47.910;20.390;2023-02-13T08:53:49;101460.16;;;0.38
62845;BMP280;48929;47.910;20.390;2023-02-13T08:56:18;101455.16;;;0.46
62845;BMP280;48929;47.910;20.390;2023-02-13T08:58:48;101450.75;;;0.56
62845;BMP280;48929;47.910;20.390;2023-02-13T09:01:16;101459.06;;;0.66
62845;BMP280;48929;47.910;20.390;2023-02-13T09:03:46;101462.47;;;0.75
62845;BMP280;48929;47.910;20.390;2023-02-13T09:06:15;101455.50;;;0.85
62845;BMP280;48929;47.910;20.390;2023-02-13T09:08:45;101449.53;;;0.94
62845;BMP280;48929;47.910;20.390;2023-02-13T09:11:15;101458.13;;;1.01
62845;BMP280;48929;47.910;20.390;2023-02-13T09:13:45;101451.97;;;1.12
62845;BMP280;48929;47.910;20.390;2023-02-13T09:16:14;101454.84;;;1.17
62845;BMP280;48929;47.910;20.390;2023-02-13T09:18:46;101449.00;;;1.25
62845;BMP280;48929;47.910;20.390;2023-02-13T09:21:16;101448.03;;;1.34
62845;BMP280;48929;47.910;20.390;2023-02-13T09:23:46;101454.25;;;1.39
62845;BMP280;48929;47.910;20.390;2023-02-13T09:26:17;101453.81;;;1.52
62845;BMP280;48929;47.910;20.390;2023-02-13T09:28:46;101452.84;;;1.61
62845;BMP280;48929;47.910;20.390;2023-02-13T09:31:18;101459.53;;;1.70
62845;BMP280;48929;47.910;20.390;2023-02-13T09:33:47;101460.03;;;1.82
62845;BMP280;48929;47.910;20.390;2023-02-13T09:36:18;101450.16;;;1.95
62845;BMP280;48929;47.910;20.390;2023-02-13T09:38:51;101453.34;;;2.05
62845;BMP280;48929;47.910;20.390;2023-02-13T09:41:24;101454.91;;;2.15
62845;BMP280;48929;47.910;20.390;2023-02-13T09:43:55;101451.88;;;2.19
62845;BMP280;48929;47.910;20.390;2023-02-13T09:46:30;101449.81;;;2.23
62845;BMP280;48929;47.910;20.390;2023-02-13T09:49:04;101451.09;;;2.27
62845;BMP280;48929;47.910;20.390;2023-02-13T09:51:34;101457.28;;;2.32
62845;BMP280;48929;47.910;20.390;2023-02-13T09:54:05;101462.00;;;2.35
62845;BMP280;48929;47.910;20.390;2023-02-13T09:56:49;101467.56;;;2.39
62845;BMP280;48929;47.910;20.390;2023-02-13T09:59:36;101456.13;;;2.43
62845;BMP280;48929;47.910;20.390;2023-02-13T10:02:22;101460.72;;;2.48
62845;BMP280;48929;47.910;20.390;2023-02-13T10:05:01;101449.75;;;2.55
62845;BMP280;48929;47.910;20.390;2023-02-13T10:07:38;101453.00;;;2.64
62845;BMP280;48929;47.910;20.390;2023-02-13T10:10:17;101442.66;;;2.65
62845;BMP280;48929;47.910;20.390;2023-02-13T10:13:02;101441.56;;;2.68
62845;BMP280;48929;47.910;20.390;2023-02-13T10:15:38;101439.78;;;2.76
62845;BMP280;48929;47.910;20.390;2023-02-13T10:18:14;101436.41;;;2.84
62845;BMP280;48929;47.910;20.390;2023-02-13T10:20:46;101438.00;;;2.85
62845;BMP280;48929;47.910;20.390;2023-02-13T10:23:21;101435.09;;;2.88
62845;BMP280;48929;47.910;20.390;2023-02-13T10:25:55;101423.00;;;2.90
62845;BMP280;48929;47.910;20.390;2023-02-13T10:28:43;101431.44;;;2.91
62845;BMP280;48929;47.910;20.390;2023-02-13T10:31:33;101415.84;;;2.94
62845;BMP280;48929;47.910;20.390;2023-02-13T10:34:09;101414.69;;;2.96
62845;BMP280;48929;47.910;20.390;2023-02-13T10:36:42;101407.81;;;2.97
62845;BMP280;48929;47.910;20.390;2023-02-13T10:39:21;101392.50;;;3.05
62845;BMP280;48929;47.910;20.390;2023-02-13T10:41:51;101387.19;;;3.14
62845;BMP280;48929;47.910;20.390;2023-02-13T10:44:42;101393.38;;;3.20
62845;BMP280;48929;47.910;20.390;2023-02-13T10:47:25;101390.13;;;3.26
62845;BMP280;48929;47.910;20.390;2023-02-13T10:50:05;101384.69;;;3.29
62845;BMP280;48929;47.910;20.390;2023-02-13T10:52:49;101384.44;;;3.39
62845;BMP280;48929;47.910;20.390;2023-02-13T10:55:49;101377.72;;;3.46
62845;BMP280;48929;47.910;20.390;2023-02-13T10:58:25;101366.38;;;3.48
62845;BMP280;48929;47.910;20.390;2023-02-13T11:01:02;101361.38;;;3.55
62845;BMP280;48929;47.910;20.390;2023-02-13T11:03:34;101353.06;;;3.61
62845;BMP280;48929;47.910;20.390;2023-02-13T11:06:06;101356.66;;;3.67
62845;BMP280;48929;47.910;20.390;2023-02-13T11:08:39;101356.47;;;3.68
62845;BMP280;48929;47.910;20.390;2023-02-13T11:11:27;101348.66;;;3.70
62845;BMP280;48929;47.910;20.390;2023-02-13T11:14:12;101338.78;;;3.67
62845;BMP280;48929;47.910;20.390;2023-02-13T11:16:53;101339.06;;;3.72
62845;BMP280;48929;47.910;20.390;2023-02-13T11:19:29;101341.63;;;3.72
62845;BMP280;48929;47.910;20.390;2023-02-13T11:22:02;101346.34;;;3.75
62845;BMP280;48929;47.910;20.390;2023-02-13T11:24:32;101348.50;;;3.86
62845;BMP280;48929;47.910;20.390;2023-02-13T11:27:02;101350.31;;;3.92
62845;BMP280;48929;47.910;20.390;2023-02-13T11:29:36;101346.97;;;3.92
62845;BMP280;48929;47.910;20.390;2023-02-13T11:32:21;101336.00;;;3.91
62845;BMP280;48929;47.910;20.390;2023-02-13T11:34:51;101336.59;;;3.93
62845;BMP280;48929;47.910;20.390;2023-02-13T11:37:26;101336.69;;;4.00
62845;BMP280;48929;47.910;20.390;2023-02-13T11:39:57;101337.56;;;4.07
62845;BMP280;48929;47.910;20.390;2023-02-13T11:42:29;101327.81;;;4.10
62845;BMP280;48929;47.910;20.390;2023-02-13T11:45:00;101319.81;;;4.13
62845;BMP280;48929;47.910;20.390;2023-02-13T11:47:37;101319.22;;;4.18
62845;BMP280;48929;47.910;20.390;2023-02-13T11:50:20;101314.47;;;4.30
62845;BMP280;48929;47.910;20.390;2023-02-13T11:52:54;101314.34;;;4.38
62845;BMP280;48929;47.910;20.390;2023-02-13T11:55:26;101312.03;;;4.43
62845;BMP280;48929;47.910;20.390;2023-02-13T11:57:56;101311.69;;;4.46
62845;BMP280;48929;47.910;20.390;2023-02-13T12:00:36;101316.44;;;4.49
62845;BMP280;48929;47.910;20.390;2023-02-13T12:03:28;101312.13;;;4.49
62845;BMP280;48929;47.910;20.390;2023-02-13T12:06:03;101320.75;;;4.48
62845;BMP280;48929;47.910;20.390;2023-02-13T12:08:34;101314.06;;;4.47
62845;BMP280;48929;47.910;20.390;2023-02-13T12:11:13;101312.91;;;4.50
62845;BMP280;48929;47.910;20.390;2023-02-13T12:13:44;101298.22;;;4.52
62845;BMP280;48929;47.910;20.390;2023-02-13T12:16:19;101298.03;;;4.53
62845;BMP280;48929;47.910;20.390;2023-02-13T12:18:53;101288.44;;;4.55
62845;BMP280;48929;47.910;20.390;2023-02-13T12:21:35;101290.06;;;4.63
62845;BMP280;48929;47.910;20.390;2023-02-13T12:24:15;101284.22;;;4.69
62845;BMP280;48929;47.910;20.390;2023-02-13T12:26:52;101287.25;;;4.79
62845;BMP280;48929;47.910;20.390;2023-02-13T12:29:49;101288.81;;;4.80
62845;BMP280;48929;47.910;20.390;2023-02-13T12:32:20;101289.44;;;4.82
62845;BMP280;48929;47.910;20.390;2023-02-13T12:35:29;101285.72;;;4.85
62845;BMP280;48929;47.910;20.390;2023-02-13T12:38:14;101272.78;;;4.86
62845;BMP280;48929;47.910;20.390;2023-02-13T12:40:57;101263.16;;;4.88
62845;BMP280;48929;47.910;20.390;2023-02-13T12:43:42;101277.72;;;4.88
62845;BMP280;48929;47.910;20.390;2023-02-13T12:46:20;101274.78;;;4.91
62845;BMP280;48929;47.910;20.390;2023-02-13T12:48:59;101264.34;;;4.92
62845;BMP280;48929;47.910;20.390;2023-02-13T12:51:40;101258.66;;;4.90
62845;BMP280;48929;47.910;20.390;2023-02-13T12:54:30;101253.13;;;4.87
62845;BMP280;48929;47.910;20.390;2023-02-13T12:57:17;101237.19;;;4.85
62845;BMP280;48929;47.910;20.390;2023-02-13T13:00:07;101232.50;;;4.88
62845;BMP280;48929;47.910;20.390;2023-02-13T13:02:50;101233.31;;;4.95
62845;BMP280;48929;47.910;20.390;2023-02-13T13:05:29;101236.47;;;4.97
62845;BMP280;48929;47.910;20.390;2023-02-13T13:08:31;101221.56;;;5.01
62845;BMP280;48929;47.910;20.390;2023-02-13T13:11:21;101217.44;;;5.00
62845;BMP280;48929;47.910;20.390;2023-02-13T13:14:02;101217.06;;;5.03
62845;BMP280;48929;47.910;20.390;2023-02-13T13:16:38;101221.81;;;5.06
62845;BMP280;48929;47.910;20.390;2023-02-13T13:19:20;101218.09;;;5.09
62845;BMP280;48929;47.910;20.390;2023-02-13T13:21:55;101220.44;;;5.10
62845;BMP280;48929;47.910;20.390;2023-02-13T13:24:40;101225.59;;;5.17
62845;BMP280;48929;47.910;20.390;2023-02-13T13:27:16;101223.84;;;5.17
62845;BMP280;48929;47.910;20.390;2023-02-13T13:29:50;101227.78;;;5.20
62845;BMP280;48929;47.910;20.390;2023-02-13T13:32:21;101228.56;;;5.20
62845;BMP280;48929;47.910;20.390;2023-02-13T13:34:50;101228.38;;;5.22
62845;BMP280;48929;47.910;20.390;2023-02-13T13:37:26;101233.31;;;5.23
62845;BMP280;48929;47.910;20.390;2023-02-13T13:40:00;101242.38;;;5.26
62845;BMP280;48929;47.910;20.390;2023-02-13T13:42:38;101242.38;;;5.26
62845;BMP280;48929;47.910;20.390;2023-02-13T13:45:19;101232.31;;;5.24
62845;BMP280;48929;47.910;20.390;2023-02-13T13:48:00;101239.78;;;5.19
62845;BMP280;48929;47.910;20.390;2023-02-13T13:50:33;101242.53;;;5.18
62845;BMP280;48929;47.910;20.390;2023-02-13T13:53:05;101242.13;;;5.21
62845;BMP280;48929;47.910;20.390;2023-02-13T13:56:01;101236.03;;;5.22
62845;BMP280;48929;47.910;20.390;2023-02-13T13:58:37;101239.97;;;5.18
62845;BMP280;48929;47.910;20.390;2023-02-13T14:01:24;101235.22;;;5.15
62845;BMP280;48929;47.910;20.390;2023-02-13T14:03:56;101229.31;;;5.14
62845;BMP280;48929;47.910;20.390;2023-02-13T14:06:27;101239.00;;;5.19
62845;BMP280;48929;47.910;20.390;2023-02-13T14:09:05;101234.47;;;5.21
62845;BMP280;48929;47.910;20.390;2023-02-13T14:11:41;101229.34;;;5.21
62845;BMP280;48929;47.910;20.390;2023-02-13T14:17:50;101225.44;;;5.18
62845;BMP280;48929;47.910;20.390;2023-02-13T14:20:36;101222.44;;;5.15
62845;BMP280;48929;47.910;20.390;2023-02-13T14:23:21;101222.81;;;5.12
62845;BMP280;48929;47.910;20.390;2023-02-13T14:26:09;101223.97;;;5.09
62845;BMP280;48929;47.910;20.390;2023-02-13T14:28:42;101220.84;;;5.07
62845;BMP280;48929;47.910;20.390;2023-02-13T14:31:18;101225.94;;;5.07
62845;BMP280;48929;47.910;20.390;2023-02-13T14:33:54;101228.09;;;5.10
62845;BMP280;48929;47.910;20.390;2023-02-13T14:36:27;101232.41;;;5.10